Time;durP1;ratioP1;P1;durP2;ratioP2;P2;SDS_P1;SDS_P2;PMS_P1;PMS_P2;Temp;Humidity;BMP_temperature;BMP_pressure;BME280_temperature;BME280_humidity;BME280_pressure;Samples;Min_cycle;Max_cycle;Signal;HPM_P1;HPM_P2
2022/08/24 00:01:49;;;;;;;20.15;17.30;;;;;;;21.09;88.56;101569.94;4786849;29;20055;-62
2022/08/24 00:04:14;;;;;;;20.30;16.80;;;;;;;21.09;88.15;101569.09;4787187;30;20054;-61
2022/08/24 00:06:40;;;;;;;19.20;17.25;;;;;;;21.01;88.13;101557.91;4786567;29;20360;-60
2022/08/24 00:09:05;;;;;;;20.07;16.93;;;;;;;21.03;88.54;101559.56;4786570;29;20126;-62
2022/08/24 00:11:30;;;;;;;19.67;17.73;;;;;;;21.03;88.19;101561.38;4787036;30;20280;-61
2022/08/24 00:13:56;;;;;;;22.90;17.77;;;;;;;20.97;89.00;101566.94;4787015;29;20660;-63
2022/08/24 00:16:21;;;;;;;21.45;18.35;;;;;;;20.96;89.15;101571.41;4787054;29;20292;-63
2022/08/24 00:18:48;;;;;;;21.75;18.05;;;;;;;20.95;89.13;101576.84;4786910;30;20054;-61
2022/08/24 00:21:14;;;;;;;20.17;18.08;;;;;;;20.95;88.88;101579.50;4786824;30;20138;-61
2022/08/24 00:23:39;;;;;;;21.08;18.88;;;;;;;20.91;89.38;101576.09;4786788;30;20104;-62
2022/08/24 00:26:05;;;;;;;21.67;18.67;;;;;;;20.93;88.86;101581.34;4786454;30;20701;-63
2022/08/24 00:28:31;;;;;;;20.55;18.35;;;;;;;20.85;89.63;101574.56;4786657;30;20070;-61
2022/08/24 00:30:56;;;;;;;21.67;19.48;;;;;;;20.85;89.71;101576.34;4786777;30;20043;-61
2022/08/24 00:33:21;;;;;;;23.40;21.00;;;;;;;20.78;90.19;101581.06;4786617;30;20655;-63
2022/08/24 00:35:46;;;;;;;25.75;22.08;;;;;;;20.81;90.18;101593.38;4786868;30;20035;-61
2022/08/24 00:38:12;;;;;;;24.17;21.02;;;;;;;20.80;90.06;101594.31;4786718;30;20038;-61
2022/08/24 00:40:45;;;;;;;24.00;20.73;;;;;;;20.78;89.96;101590.88;4786808;30;20039;-59
2022/08/24 00:43:10;;;;;;;23.65;20.27;;;;;;;20.74;90.23;101583.97;4786744;30;20124;-66
2022/08/24 00:45:41;;;;;;;21.95;19.70;;;;;;;20.77;90.02;101590.03;4786675;30;20073;-60
2022/08/24 00:48:14;;;;;;;21.63;19.33;;;;;;;20.68;90.44;101585.09;4786581;29;20460;-61
2022/08/24 00:50:55;;;;;;;23.92;21.30;;;;;;;20.70;89.68;101588.53;4786540;30;20039;-60
2022/08/24 00:53:31;;;;;;;26.63;21.75;;;;;;;20.61;90.88;101591.59;4786383;30;20081;-62
2022/08/24 00:56:00;;;;;;;24.95;21.02;;;;;;;20.54;91.66;101591.94;4786504;29;20050;-60
2022/08/24 00:58:35;;;;;;;25.27;21.80;;;;;;;20.55;91.05;101585.69;4786548;30;20035;-60
2022/08/24 01:01:05;;;;;;;25.42;22.77;;;;;;;20.53;91.64;101595.53;4786719;30;20338;-62
2022/08/24 01:03:31;;;;;;;25.80;23.02;;;;;;;20.55;91.42;101588.34;4786279;29;20081;-61
2022/08/24 01:05:58;;;;;;;27.00;23.63;;;;;;;20.58;91.39;101593.53;4786456;30;20035;-59
2022/08/24 01:08:23;;;;;;;32.38;23.70;;;;;;;20.55;91.43;101591.00;4786401;30;20043;-61
2022/08/24 01:10:56;;;;;;;27.42;24.05;;;;;;;20.52;91.76;101588.47;4770394;30;20080;-61
2022/08/24 01:13:24;;;;;;;26.27;23.48;;;;;;;20.43;92.15;101587.91;4786622;30;20039;-61
2022/08/24 01:15:53;;;;;;;27.35;24.30;;;;;;;20.43;92.54;101589.75;4786264;29;20047;-62
2022/08/24 01:21:20;;;;;;;28.23;24.58;;;;;;;20.37;92.74;101588.19;4790047;30;20101;-62
2022/08/24 01:23:56;;;;;;;31.23;25.40;;;;;;;20.34;92.30;101588.28;4789593;29;20057;-59
2022/08/24 01:26:31;;;;;;;30.80;24.48;;;;;;;20.25;93.06;101586.03;4789767;30;20131;-60
2022/08/24 01:29:01;;;;;;;28.23;24.50;;;;;;;20.32;92.64;101586.63;4789648;30;20043;-63
2022/08/24 01:31:26;;;;;;;28.13;24.25;;;;;;;20.30;93.08;101593.78;4789663;30;20103;-62
2022/08/24 01:33:53;;;;;;;32.58;25.30;;;;;;;20.27;92.91;101591.25;4789374;30;20031;-61
2022/08/24 01:36:29;;;;;;;27.60;24.08;;;;;;;20.25;92.77;101593.13;4789632;29;20468;-62
2022/08/24 01:38:59;;;;;;;26.58;23.65;;;;;;;20.19;93.26;101593.38;4789470;29;20077;-63
2022/08/24 01:41:24;;;;;;;28.45;24.33;;;;;;;20.16;93.27;101583.75;4789521;30;20047;-61
2022/08/24 01:43:49;;;;;;;28.65;24.55;;;;;;;20.04;93.88;101573.63;4789424;29;20031;-59
2022/08/24 01:46:15;;;;;;;29.75;24.58;;;;;;;20.12;93.91;101584.78;4789737;30;20089;-62
2022/08/24 01:48:40;;;;;;;30.33;25.42;;;;;;;20.04;94.44;101576.28;4789589;29;20055;-59
2022/08/24 01:51:05;;;;;;;30.73;26.10;;;;;;;19.98;95.17;101576.53;4789419;30;20115;-63
2022/08/24 01:53:31;;;;;;;32.03;26.63;;;;;;;19.99;94.89;101576.47;4788896;30;20063;-61
2022/08/24 01:55:56;;;;;;;29.38;26.17;;;;;;;19.97;95.02;101580.09;4789331;29;20297;-63
2022/08/24 01:58:21;;;;;;;29.13;25.30;;;;;;;19.99;94.64;101587.09;4789366;30;20407;-59
2022/08/24 02:00:47;;;;;;;30.30;25.75;;;;;;;19.94;94.57;101575.78;4789236;29;20047;-60
2022/08/24 02:03:12;;;;;;;29.63;25.17;;;;;;;19.94;94.72;101580.22;4789077;29;20047;-62
2022/08/24 02:05:38;;;;;;;29.08;25.92;;;;;;;19.94;94.71;101580.22;4788997;29;20049;-62
2022/08/24 02:08:03;;;;;;;30.15;25.08;;;;;;;19.90;94.53;101578.63;4789060;30;20043;-62
2022/08/24 02:10:29;;;;;;;29.58;25.95;;;;;;;19.89;94.15;101582.22;4788976;29;20457;-63
2022/08/24 02:12:56;;;;;;;31.08;25.67;;;;;;;19.82;94.98;101573.63;4788942;30;20058;-59
2022/08/24 02:15:30;;;;;;;31.38;24.55;;;;;;;19.86;94.47;101577.03;4789045;30;20069;-62
2022/08/24 02:17:56;;;;;;;28.15;25.08;;;;;;;19.76;95.07;101574.72;4788881;30;20043;-60
2022/08/24 02:20:21;;;;;;;27.70;24.70;;;;;;;19.76;94.99;101573.84;4788864;29;20058;-63
2022/08/24 02:22:48;;;;;;;28.95;24.45;;;;;;;19.78;94.57;101583.50;4788667;30;20035;-62
2022/08/24 02:25:15;;;;;;;28.90;25.52;;;;;;;19.71;94.76;101583.81;4788687;30;20039;-59
2022/08/24 02:27:41;;;;;;;27.70;24.27;;;;;;;19.74;94.59;101579.22;4788939;30;20039;-63
2022/08/24 02:30:07;;;;;;;29.70;24.52;;;;;;;19.71;94.98;101590.00;4788012;29;20054;-61
2022/08/24 02:32:32;;;;;;;27.38;24.05;;;;;;;19.65;95.08;101592.88;4788867;29;20074;-60
2022/08/24 02:34:57;;;;;;;28.90;23.93;;;;;;;19.64;95.15;101587.63;4788764;30;20043;-61
2022/08/24 02:37:23;;;;;;;28.95;24.23;;;;;;;19.60;95.57;101599.28;4787367;29;20395;-60
2022/08/24 02:39:48;;;;;;;29.25;24.50;;;;;;;19.60;95.17;101600.16;4788473;29;20039;-61
2022/08/24 02:42:14;;;;;;;28.23;25.02;;;;;;;19.60;95.34;101600.16;4788511;29;20046;-61
2022/08/24 02:44:40;;;;;;;29.58;26.02;;;;;;;19.55;95.59;101603.94;4788142;29;20385;-59
2022/08/24 02:47:05;;;;;;;28.63;24.98;;;;;;;19.56;95.79;101595.91;4788562;29;20070;-60
2022/08/24 02:49:30;;;;;;;28.33;25.33;;;;;;;19.56;95.68;101595.03;4788176;29;20047;-59
2022/08/24 02:51:56;;;;;;;28.55;25.23;;;;;;;19.52;95.54;101596.06;4788199;29;20043;-61
2022/08/24 02:54:21;;;;;;;27.38;24.38;;;;;;;19.48;95.52;101588.19;4788326;30;20139;-60
2022/08/24 02:56:47;;;;;;;28.30;24.73;;;;;;;19.45;95.99;101603.38;4788358;29;20073;-63
2022/08/24 02:59:14;;;;;;;26.35;23.55;;;;;;;19.43;95.69;101594.59;4788252;30;20057;-62
2022/08/24 03:01:39;;;;;;;26.98;24.10;;;;;;;19.41;95.98;101602.59;4788349;30;20043;-60
2022/08/24 03:04:05;;;;;;;27.15;23.63;;;;;;;19.40;95.96;101600.00;4788121;30;20036;-59
2022/08/24 03:06:30;;;;;;;29.05;23.98;;;;;;;19.34;95.96;101589.66;4788106;29;20035;-63
2022/08/24 03:08:55;;;;;;;30.13;25.63;;;;;;;19.32;95.91;101587.03;4787909;29;20073;-64
2022/08/24 03:11:21;;;;;;;27.70;24.70;;;;;;;19.32;95.75;101584.41;4788119;30;20051;-59
2022/08/24 03:13:46;;;;;;;29.40;25.05;;;;;;;19.30;95.86;101594.19;4788111;29;20273;-63
2022/08/24 03:16:11;;;;;;;30.58;25.50;;;;;;;19.17;96.63;101586.75;4788065;29;20070;-63
2022/08/24 03:18:37;;;;;;;28.17;25.05;;;;;;;19.17;97.23;101594.72;4787571;29;20039;-62
2022/08/24 03:21:03;;;;;;;27.77;24.67;;;;;;;19.20;96.89;101594.63;4788178;29;20035;-60
2022/08/24 03:23:28;;;;;;;31.42;24.90;;;;;;;19.19;96.83;101590.22;4787684;30;20309;-59
2022/08/24 03:25:55;;;;;;;27.92;24.42;;;;;;;19.21;96.29;101588.38;4787777;30;20050;-61
2022/08/24 03:28:22;;;;;;;31.98;24.77;;;;;;;19.19;96.56;101585.78;4787668;29;20142;-60
2022/08/24 03:30:48;;;;;;;27.25;24.00;;;;;;;19.17;96.50;101594.72;4787826;30;20039;-62
2022/08/24 03:33:13;;;;;;;27.95;24.88;;;;;;;19.14;96.48;101587.72;4787804;29;20100;-62
2022/08/24 03:35:39;;;;;;;31.30;25.63;;;;;;;19.10;97.38;101594.94;4787658;30;20098;-62
2022/08/24 03:38:06;;;;;;;30.75;25.40;;;;;;;19.05;97.35;101599.53;4787798;29;20118;-60
2022/08/24 03:40:33;;;;;;;29.70;24.73;;;;;;;19.05;97.11;101590.72;4787337;29;20043;-63
2022/08/24 03:42:59;;;;;;;29.92;24.95;;;;;;;19.04;97.06;101581.91;4787539;30;20047;-65
2022/08/24 03:45:25;;;;;;;30.15;24.83;;;;;;;19.02;97.51;101589.06;4787487;30;20050;-63
2022/08/24 03:47:51;;;;;;;28.10;24.83;;;;;;;19.00;97.67;101582.06;4787061;29;20497;-61
2022/08/24 03:50:17;;;;;;;28.38;25.33;;;;;;;18.97;97.68;101584.84;4787438;29;20043;-61
2022/08/24 03:52:42;;;;;;;28.58;25.48;;;;;;;18.99;97.43;101585.66;4786988;29;20123;-64
2022/08/24 03:55:08;;;;;;;27.60;24.35;;;;;;;18.95;97.50;101590.19;4787230;29;20039;-61
2022/08/24 03:57:34;;;;;;;27.85;24.85;;;;;;;18.96;97.53;101599.00;4787279;30;20199;-61
2022/08/24 04:00:00;;;;;;;28.30;25.23;;;;;;;18.93;97.84;101600.00;4787270;30;20043;-62
2022/08/24 04:02:27;;;;;;;27.80;24.75;;;;;;;18.89;98.12;101597.50;4787261;30;20534;-62
2022/08/24 04:04:52;;;;;;;29.08;24.70;;;;;;;18.89;98.13;101592.19;4786968;30;20258;-64
2022/08/24 04:07:18;;;;;;;29.50;24.57;;;;;;;18.85;97.99;101602.06;4787064;30;20118;-61
2022/08/24 04:09:44;;;;;;;28.42;25.35;;;;;;;18.84;98.00;101604.78;4786895;30;20288;-62
2022/08/24 04:12:09;;;;;;;26.75;23.85;;;;;;;18.81;98.26;101603.09;4787097;30;20046;-61
2022/08/24 04:14:34;;;;;;;27.77;23.83;;;;;;;18.83;98.00;101597.72;4787010;30;20446;-60
2022/08/24 04:17:00;;;;;;;26.30;23.50;;;;;;;18.81;97.78;101608.38;4787052;30;20454;-62
2022/08/24 04:19:26;;;;;;;29.27;24.75;;;;;;;18.80;97.69;101609.31;4786664;30;20176;-63
2022/08/24 04:21:52;;;;;;;30.13;25.63;;;;;;;18.75;98.67;101595.34;4786877;30;20671;-64
2022/08/24 04:24:18;;;;;;;28.67;24.23;;;;;;;18.76;99.24;101599.72;4786604;30;20049;-62
2022/08/24 04:26:44;;;;;;;27.27;24.05;;;;;;;18.71;98.92;101599.88;4786716;29;20042;-62
2022/08/24 04:29:11;;;;;;;28.90;24.70;;;;;;;18.69;98.97;101601.75;4786810;30;20094;-64
2022/08/24 04:31:38;;;;;;;27.88;24.85;;;;;;;18.72;98.60;101606.91;4786600;29;20092;-63
2022/08/24 04:34:05;;;;;;;26.80;23.73;;;;;;;18.76;98.70;101612.97;4786689;29;20031;-62
2022/08/24 04:36:31;;;;;;;29.10;24.00;;;;;;;18.74;98.60;101615.69;4786742;29;20054;-61
2022/08/24 04:38:57;;;;;;;28.35;23.90;;;;;;;18.71;99.15;101615.78;4770585;30;20477;-62
2022/08/24 04:41:22;;;;;;;26.50;23.67;;;;;;;18.67;98.69;101608.00;4786871;30;20070;-61
2022/08/24 04:43:48;;;;;;;26.10;23.25;;;;;;;18.65;98.96;101609.84;4786466;29;20484;-59
2022/08/24 04:46:15;;;;;;;27.45;23.92;;;;;;;18.63;99.17;101614.34;4786661;30;20051;-63
2022/08/24 04:48:43;;;;;;;26.88;23.98;;;;;;;18.61;99.56;101616.16;4786666;29;20054;-63
2022/08/24 04:51:10;;;;;;;28.05;23.05;;;;;;;18.61;99.43;101613.50;4786703;30;20129;-59
2022/08/24 04:53:36;;;;;;;27.92;24.98;;;;;;;18.63;99.57;101616.97;4789505;29;20632;-61
2022/08/24 04:56:03;;;;;;;26.38;23.58;;;;;;;18.65;99.83;101623.09;4792562;30;20039;-60
2022/08/24 04:58:29;;;;;;;27.52;24.58;;;;;;;18.64;99.83;101616.06;4792472;30;20147;-61
2022/08/24 05:00:55;;;;;;;29.80;24.90;;;;;;;18.59;99.71;101616.22;4792639;29;20055;-60
2022/08/24 05:03:21;;;;;;;28.73;24.92;;;;;;;18.64;100.00;101618.72;4792355;29;20059;-60
2022/08/24 05:05:48;;;;;;;30.60;24.63;;;;;;;18.65;99.92;101623.09;4792387;30;20059;-61
2022/08/24 05:08:14;;;;;;;27.77;24.27;;;;;;;18.64;99.76;101619.59;4792454;29;20047;-60
2022/08/24 05:10:42;;;;;;;29.60;24.55;;;;;;;18.66;99.70;101624.84;4792495;29;20133;-60
2022/08/24 05:13:08;;;;;;;28.77;24.52;;;;;;;18.67;99.47;101622.13;4792461;29;20074;-57
2022/08/24 05:15:34;;;;;;;26.67;23.80;;;;;;;18.69;99.26;101622.09;4792290;30;20199;-60
2022/08/24 05:18:01;;;;;;;27.15;22.95;;;;;;;18.71;99.13;101629.03;4792406;29;20111;-59
2022/08/24 05:20:27;;;;;;;29.60;23.13;;;;;;;18.73;98.78;101626.34;4792145;30;20051;-60
2022/08/24 05:22:53;;;;;;;28.02;22.65;;;;;;;18.76;98.54;101628.88;4792287;29;20043;-61
2022/08/24 05:25:19;;;;;;;26.63;23.30;;;;;;;18.76;99.08;101626.25;4792230;30;20076;-60
2022/08/24 05:27:44;;;;;;;29.67;24.13;;;;;;;18.81;98.87;101624.31;4792313;29;20035;-61
2022/08/24 05:30:10;;;;;;;26.92;24.00;;;;;;;18.82;98.79;101627.81;4792273;30;20175;-62
2022/08/24 05:32:37;;;;;;;28.92;25.23;;;;;;;18.84;98.89;101629.50;4791718;30;20373;-60
2022/08/24 05:35:03;;;;;;;29.55;24.98;;;;;;;18.92;98.43;101638.03;4792129;29;20047;-61
2022/08/24 05:37:30;;;;;;;32.30;27.50;;;;;;;18.91;98.78;101641.63;4791917;29;20442;-61
2022/08/24 05:39:56;;;;;;;34.20;28.70;;;;;;;18.94;99.20;101640.63;4792102;30;20043;-60
2022/08/24 05:42:21;;;;;;;34.40;28.95;;;;;;;18.98;99.57;101634.31;4792161;30;20063;-60
2022/08/24 05:44:47;;;;;;;39.05;31.30;;;;;;;19.03;99.61;101649.16;4791591;30;20035;-61
2022/08/24 05:47:12;;;;;;;35.33;30.42;;;;;;;19.07;99.82;101641.94;4792165;29;20380;-61
2022/08/24 05:49:38;;;;;;;39.42;32.80;;;;;;;19.10;99.75;101642.69;4792025;30;20054;-61
2022/08/24 05:52:03;;;;;;;38.90;33.38;;;;;;;19.12;100.00;101635.53;4792100;29;20058;-61
2022/08/24 05:54:28;;;;;;;40.53;33.42;;;;;;;19.23;100.00;101634.28;4791921;29;20196;-61
2022/08/24 05:56:54;;;;;;;40.92;33.75;;;;;;;19.25;100.00;101629.78;4792102;30;20455;-61
2022/08/24 05:59:21;;;;;;;39.60;34.70;;;;;;;19.37;99.81;101640.84;4792142;29;20035;-60
2022/08/24 06:01:47;;;;;;;42.40;35.47;;;;;;;19.42;100.00;101636.19;4792026;29;20619;-61
2022/08/24 06:04:12;;;;;;;50.38;40.92;;;;;;;19.48;100.00;101628.00;4790693;29;20128;-62
2022/08/24 06:06:37;;;;;;;43.63;37.05;;;;;;;19.52;100.00;101634.13;4788586;29;20066;-59
2022/08/24 06:09:03;;;;;;;42.78;36.13;;;;;;;19.60;99.87;101639.97;4789222;29;20065;-62
2022/08/24 06:11:31;;;;;;;42.25;37.05;;;;;;;19.63;100.00;101631.03;4789194;29;20047;-63
2022/08/24 06:14:00;;;;;;;50.65;40.97;;;;;;;19.71;100.00;101636.94;4789125;30;20063;-62
2022/08/24 06:16:26;;;;;;;49.03;41.45;;;;;;;19.78;100.00;101641.94;4788909;30;20507;-60
2022/08/24 06:18:52;;;;;;;49.53;40.58;;;;;;;19.83;100.00;101651.53;4788574;29;20156;-62
2022/08/24 06:21:24;;;;;;;47.60;40.15;;;;;;;19.89;100.00;101656.59;4788982;30;20047;-59
2022/08/24 06:23:50;;;;;;;45.10;39.08;;;;;;;19.92;100.00;101643.16;4788886;29;20137;-59
2022/08/24 06:29:01;;;;;;;45.65;39.10;;;;;;;20.13;100.00;101655.63;4788747;30;20101;-60
2022/08/24 06:31:27;;;;;;;44.58;38.20;;;;;;;20.17;100.00;101655.44;4788698;30;20080;-59
2022/08/24 06:33:54;;;;;;;47.40;40.47;;;;;;;20.20;100.00;101654.44;4788627;29;20450;-59
2022/08/24 06:36:20;;;;;;;48.20;40.08;;;;;;;20.14;100.00;101634.28;4788393;30;20544;-59
2022/08/24 06:38:46;;;;;;;48.60;42.28;;;;;;;20.30;100.00;101658.44;4788690;29;20448;-59
2022/08/24 06:41:11;;;;;;;48.80;41.80;;;;;;;20.40;100.00;101661.66;4788601;30;20043;-61
2022/08/24 06:43:37;;;;;;;50.70;41.95;;;;;;;20.45;100.00;101663.16;4788323;29;20054;-60
2022/08/24 06:46:04;;;;;;;52.28;41.72;;;;;;;20.49;100.00;101671.91;4788472;30;20039;-61
2022/08/24 06:48:30;;;;;;;48.60;40.05;;;;;;;20.54;100.00;101666.38;4788383;29;20070;-59
2022/08/24 06:50:57;;;;;;;46.40;40.22;;;;;;;20.61;100.00;101667.84;4788446;30;20437;-64
2022/08/24 06:53:23;;;;;;;45.55;38.92;;;;;;;20.68;100.00;101670.19;4788373;30;20066;-61
2022/08/24 06:55:57;;;;;;;43.40;36.42;;;;;;;20.74;100.00;101664.63;4788177;29;20043;-60
2022/08/24 06:58:24;;;;;;;40.38;34.42;;;;;;;20.83;100.00;101666.00;4788223;30;20051;-64
2022/08/24 07:00:49;;;;;;;43.65;36.13;;;;;;;20.93;100.00;101669.16;4788308;29;20088;-62
2022/08/24 07:03:16;;;;;;;41.38;36.38;;;;;;;21.02;99.55;101671.41;4788225;30;20147;-61
2022/08/24 07:05:56;;;;;;;40.38;32.35;;;;;;;21.12;97.91;101673.63;4788223;30;20055;-62
2022/08/24 07:08:23;;;;;;;40.70;33.33;;;;;;;21.17;96.39;101668.06;4788000;30;20039;-61
2022/08/24 07:10:49;;;;;;;39.72;31.90;;;;;;;21.24;95.73;101674.91;4788280;30;20051;-63
2022/08/24 07:13:14;;;;;;;46.10;33.13;;;;;;;21.36;94.79;101676.13;4788093;30;20043;-60
2022/08/24 07:15:43;;;;;;;38.30;31.90;;;;;;;21.44;93.44;101676.66;4787687;29;20122;-60
2022/08/24 07:18:14;;;;;;;33.28;26.45;;;;;;;21.58;91.47;101676.91;4787971;30;20042;-62
2022/08/24 07:20:40;;;;;;;35.65;27.55;;;;;;;21.66;91.77;101676.53;4787863;30;20123;-60
2022/08/24 07:23:06;;;;;;;32.25;25.02;;;;;;;21.71;89.99;101674.53;4787767;30;20530;-61
2022/08/24 07:25:32;;;;;;;28.90;23.48;;;;;;;21.77;89.39;101682.25;4787647;30;20051;-62
2022/08/24 07:27:59;;;;;;;37.58;25.80;;;;;;;21.87;88.69;101681.72;4787696;30;20035;-62
2022/08/24 07:30:26;;;;;;;25.05;22.30;;;;;;;21.95;88.52;101677.84;4787371;30;20042;-62
2022/08/24 07:32:52;;;;;;;25.52;21.60;;;;;;;22.05;86.23;101677.34;4787643;30;20351;-60
2022/08/24 07:35:17;;;;;;;21.95;19.55;;;;;;;22.07;84.63;101675.50;4787735;30;20047;-62
2022/08/24 07:37:42;;;;;;;22.55;19.67;;;;;;;22.15;84.03;101681.34;4787569;29;20043;-62
2022/08/24 07:40:08;;;;;;;27.50;19.27;;;;;;;22.25;82.60;101672.88;4787424;29;20038;-60
2022/08/24 07:42:33;;;;;;;27.60;18.52;;;;;;;22.32;83.30;101676.97;4787470;30;20130;-62
2022/08/24 07:44:59;;;;;;;24.83;16.98;;;;;;;22.40;81.53;101674.78;4787346;29;20043;-62
2022/08/24 07:47:25;;;;;;;19.17;15.43;;;;;;;22.48;80.69;101676.16;4787502;30;20043;-62
2022/08/24 07:49:50;;;;;;;21.20;14.75;;;;;;;22.55;80.70;101674.00;4787467;30;20573;-61
2022/08/24 07:52:15;;;;;;;19.08;15.32;;;;;;;22.62;79.84;101679.91;4771172;30;20492;-63
2022/08/24 07:54:40;;;;;;;18.45;14.95;;;;;;;22.65;79.58;101677.09;4787249;30;20078;-62
2022/08/24 07:57:06;;;;;;;19.00;13.60;;;;;;;22.79;78.03;101682.63;4787160;30;20035;-61
2022/08/24 07:59:33;;;;;;;16.77;12.93;;;;;;;22.85;77.19;101677.00;4790255;29;20050;-63
2022/08/24 08:01:58;;;;;;;17.55;12.95;;;;;;;22.91;76.64;101688.19;4786610;29;20038;-62
2022/08/24 08:04:24;;;;;;;16.95;12.45;;;;;;;22.99;76.04;101684.28;4786661;30;20054;-61
2022/08/24 08:06:54;;;;;;;14.68;11.00;;;;;;;23.05;76.48;101679.47;4786759;29;20034;-63
2022/08/24 08:09:19;;;;;;;21.13;11.68;;;;;;;23.09;74.72;101691.72;4786505;30;20100;-61
2022/08/24 08:11:45;;;;;;;14.93;9.85;;;;;;;23.18;73.87;101685.91;4787156;29;20138;-62
2022/08/24 08:14:10;;;;;;;14.30;10.48;;;;;;;23.24;73.88;101687.38;4787292;30;20049;-65
2022/08/24 08:16:38;;;;;;;14.43;10.23;;;;;;;23.27;74.21;101690.75;4786900;29;20133;-61
2022/08/24 08:19:04;;;;;;;14.52;10.52;;;;;;;23.30;73.48;101688.88;4786598;29;20465;-62
2022/08/24 08:24:15;;;;;;;15.38;9.30;;;;;;;23.47;73.56;101689.69;4768708;30;20139;-61
2022/08/24 08:26:41;;;;;;;15.15;10.40;;;;;;;23.51;72.79;101690.41;4768784;30;20450;-62
2022/08/24 08:29:09;;;;;;;12.57;8.45;;;;;;;23.60;72.64;101679.22;4768293;30;20043;-60
2022/08/24 08:31:35;;;;;;;13.50;9.20;;;;;;;23.71;71.96;101692.03;4768627;30;20079;-61
2022/08/24 08:34:00;;;;;;;12.00;8.88;;;;;;;23.80;72.09;101679.00;4775034;30;20083;-61
2022/08/24 08:36:26;;;;;;;13.10;8.85;;;;;;;23.88;71.56;101671.44;4786612;30;20423;-61
2022/08/24 08:38:51;;;;;;;10.57;8.52;;;;;;;24.03;70.94;101679.53;4786247;30;20039;-62
2022/08/24 08:41:16;;;;;;;10.93;7.78;;;;;;;24.12;70.24;101673.66;4783330;30;20832;-63
2022/08/24 08:43:43;;;;;;;13.65;7.68;;;;;;;24.24;70.77;101684.53;4786326;30;20825;-64
2022/08/24 08:46:17;;;;;;;11.05;8.45;;;;;;;24.32;70.33;101673.44;4786686;30;20035;-61
2022/08/24 08:49:10;;;;;;;12.55;7.53;;;;;;;24.55;68.61;101686.34;4784079;30;20472;-62
2022/08/24 08:52:04;;;;;;;8.85;6.95;;;;;;;24.65;68.17;101681.28;4768445;30;20458;-59
2022/08/24 08:54:48;;;;;;;7.80;6.25;;;;;;;24.79;68.12;101685.81;4768556;30;20064;-61
2022/08/24 08:57:41;;;;;;;9.73;5.30;;;;;;;24.92;66.87;101686.84;4768477;30;20043;-61
2022/08/24 09:00:23;;;;;;;13.15;5.45;;;;;;;25.17;65.83;101681.75;4777267;30;20462;-65
2022/08/24 09:03:25;;;;;;;10.65;5.55;;;;;;;25.36;65.61;101685.97;4786091;30;20039;-61
2022/08/24 09:06:21;;;;;;;6.78;4.80;;;;;;;25.62;63.01;101675.41;4786207;30;20480;-61
2022/08/24 09:09:35;;;;;;;10.35;5.25;;;;;;;25.84;63.70;101687.41;4786234;30;20039;-64
2022/08/24 09:12:38;;;;;;;18.77;5.20;;;;;;;25.99;62.99;101681.06;4780466;30;20058;-62
2022/08/24 09:15:33;;;;;;;7.40;3.78;;;;;;;25.97;60.95;101683.88;4768448;30;20059;-61
2022/08/24 09:18:16;;;;;;;5.30;3.50;;;;;;;25.93;60.38;101694.88;4768365;30;20347;-62
2022/08/24 09:21:06;;;;;;;5.05;3.30;;;;;;;25.75;59.48;101694.25;4768287;30;20040;-61
2022/08/24 09:23:51;;;;;;;5.47;3.03;;;;;;;25.66;58.95;101687.63;4768301;30;20719;-61
2022/08/24 09:26:28;;;;;;;3.55;2.65;;;;;;;25.79;60.15;101689.56;4768209;30;20466;-61
2022/08/24 09:29:10;;;;;;;4.95;3.00;;;;;;;25.98;59.42;101679.34;4768345;30;20055;-61
2022/08/24 09:32:11;;;;;;;4.82;3.00;;;;;;;26.07;58.83;101685.94;4768218;30;20036;-62
2022/08/24 09:35:08;;;;;;;7.88;3.72;;;;;;;26.23;58.10;101684.84;4756173;30;20051;-61
2022/08/24 09:37:46;;;;;;;5.75;3.50;;;;;;;26.52;58.82;101685.63;4768313;30;20361;-61
2022/08/24 09:40:59;;;;;;;3.78;2.70;;;;;;;26.80;57.38;101687.31;4770414;30;20059;-64
2022/08/24 09:44:12;;;;;;;4.68;2.60;;;;;;;27.07;57.15;101689.09;4771609;30;20358;-61
2022/08/24 09:46:56;;;;;;;6.72;3.10;;;;;;;27.34;54.78;101693.44;4741253;30;20063;-59
2022/08/24 09:50:17;;;;;;;4.78;3.55;;;;;;;27.38;55.47;101691.34;4771526;30;20499;-62
2022/08/24 09:53:14;;;;;;;5.13;3.10;;;;;;;27.42;55.77;101694.69;4733323;30;20197;-61
2022/08/24 09:56:01;;;;;;;4.55;2.30;;;;;;;27.53;52.17;101689.44;4771266;30;20478;-58
2022/08/24 09:58:49;;;;;;;3.90;2.40;;;;;;;27.73;53.18;101691.56;4771346;30;20093;-59
2022/08/24 10:01:21;;;;;;;3.58;2.30;;;;;;;27.96;51.71;101682.69;4771101;30;20036;-56
2022/08/24 10:04:07;;;;;;;5.18;2.05;;;;;;;28.06;50.07;101686.41;4771218;30;20112;-57
2022/08/24 10:06:44;;;;;;;5.40;2.97;;;;;;;28.23;50.21;101687.91;4771262;30;20540;-54
2022/08/24 10:09:18;;;;;;;4.70;2.28;;;;;;;28.30;50.62;101677.56;4770825;30;20031;-57
2022/08/24 10:12:04;;;;;;;4.22;1.98;;;;;;;28.49;49.85;101677.03;4770961;30;20465;-58
2022/08/24 10:14:35;;;;;;;3.80;2.30;;;;;;;28.27;49.53;101675.94;4771161;30;20043;-62
2022/08/24 10:17:21;;;;;;;2.42;2.22;;;;;;;28.20;50.63;101673.84;4771097;30;20434;-62
2022/08/24 10:20:24;;;;;;;4.50;2.08;;;;;;;28.27;50.95;101670.56;4770974;30;20092;-61
2022/08/24 10:23:09;;;;;;;3.33;1.90;;;;;;;28.41;49.24;101672.22;4749020;30;20101;-64
2022/08/24 10:25:40;;;;;;;3.22;1.83;;;;;;;28.16;48.66;101662.41;4770838;30;20039;-63
2022/08/24 10:28:34;;;;;;;2.58;1.73;;;;;;;27.96;50.61;101655.78;4770800;30;20126;-60
2022/08/24 10:31:07;;;;;;;3.35;1.60;;;;;;;27.75;49.94;101665.41;4770684;30;20047;-60
2022/08/24 10:33:50;;;;;;;2.90;2.17;;;;;;;27.57;50.29;101664.06;4770797;30;20049;-62
2022/08/24 10:36:37;;;;;;;3.40;1.80;;;;;;;27.48;52.15;101664.69;4770665;30;20079;-60
2022/08/24 10:39:44;;;;;;;3.75;2.08;;;;;;;27.38;51.56;101668.03;4788909;29;20049;-60
2022/08/24 10:45:30;;;;;;;2.60;2.00;;;;;;;27.65;51.52;101667.06;4806310;29;20080;-62
2022/08/24 10:48:20;;;;;;;3.63;2.10;;;;;;;28.03;50.65;101656.22;4806505;29;20361;-62
2022/08/24 10:51:07;;;;;;;2.90;1.88;;;;;;;28.63;48.83;101655.28;4805550;29;20044;-61
2022/08/24 10:53:33;;;;;;;2.25;1.92;;;;;;;29.12;47.67;101641.59;4806268;29;20063;-60
2022/08/24 10:56:07;;;;;;;2.35;1.90;;;;;;;29.63;46.58;101657.31;4806257;29;20089;-63
2022/08/24 10:58:58;;;;;;;2.80;1.80;;;;;;;29.86;45.74;101642.81;4806115;29;20074;-61
2022/08/24 11:01:30;;;;;;;3.33;2.00;;;;;;;29.97;43.74;101642.81;4806251;29;20365;-62
2022/08/24 11:04:07;;;;;;;3.25;1.92;;;;;;;30.21;44.34;101641.78;4806044;29;20042;-62
2022/08/24 11:06:40;;;;;;;2.20;2.00;;;;;;;30.36;43.13;101638.66;4806174;29;20050;-63
2022/08/24 11:09:15;;;;;;;4.80;2.30;;;;;;;30.18;43.41;101642.03;4805821;29;20064;-61
2022/08/24 11:11:43;;;;;;;2.88;2.03;;;;;;;30.01;43.49;101633.50;4805953;29;20496;-61
2022/08/24 11:14:15;;;;;;;2.95;1.70;;;;;;;30.00;44.49;101639.00;4805955;29;20047;-61
2022/08/24 11:16:43;;;;;;;2.58;1.85;;;;;;;29.90;44.52;101633.50;4805651;29;20141;-62
2022/08/24 11:19:32;;;;;;;3.97;2.10;;;;;;;29.83;45.51;101636.81;4805932;29;20049;-62
2022/08/24 11:22:00;;;;;;;2.60;1.88;;;;;;;29.93;44.20;101635.94;4805616;29;20411;-60
2022/08/24 11:24:46;;;;;;;3.88;1.90;;;;;;;30.16;45.43;101627.81;4805692;29;20049;-59
2022/08/24 11:27:14;;;;;;;2.00;1.80;;;;;;;30.39;43.50;101635.69;4805699;29;20482;-61
2022/08/24 11:29:48;;;;;;;3.08;1.83;;;;;;;30.53;43.97;101630.97;4805805;29;20453;-62
2022/08/24 11:32:37;;;;;;;4.13;1.98;;;;;;;30.54;44.03;101629.97;4805714;29;20092;-60
2022/08/24 11:35:16;;;;;;;2.30;1.95;;;;;;;30.36;43.14;101629.69;4792277;29;20043;-63
2022/08/24 11:37:41;;;;;;;2.78;2.15;;;;;;;30.45;42.78;101623.53;4787138;29;20056;-62
2022/08/24 11:40:08;;;;;;;3.05;1.83;;;;;;;30.52;42.69;101631.94;4787456;29;20042;-63